sensor_id;sensor_type;location;lat;lon;timestamp;pressure;altitude;pressure_sealevel;temperature;humidity
63694;BME280;49839;51.798;10.954;2022-07-10T00:01:01;99773.50;;;13.35;61.87
63694;BME280;49839;51.798;10.954;2022-07-10T00:03:28;99765.56;;;13.35;61.95
63694;BME280;49839;51.798;10.954;2022-07-10T00:05:56;99754.38;;;13.30;62.63
63694;BME280;49839;51.798;10.954;2022-07-10T00:08:24;99754.47;;;13.28;62.57
63694;BME280;49839;51.798;10.954;2022-07-10T00:10:52;99755.41;;;13.27;63.40
63694;BME280;49839;51.798;10.954;2022-07-10T00:13:20;99755.31;;;13.29;63.38
63694;BME280;49839;51.798;10.954;2022-07-10T00:15:47;99750.19;;;13.26;63.77
63694;BME280;49839;51.798;10.954;2022-07-10T00:18:15;99754.72;;;13.24;64.11
63694;BME280;49839;51.798;10.954;2022-07-10T00:20:43;99752.25;;;13.21;63.82
63694;BME280;49839;51.798;10.954;2022-07-10T00:23:10;99755.88;;;13.18;64.42
63694;BME280;49839;51.798;10.954;2022-07-10T00:25:38;99751.53;;;13.17;64.07
63694;BME280;49839;51.798;10.954;2022-07-10T00:28:07;99757.06;;;13.13;64.78
63694;BME280;49839;51.798;10.954;2022-07-10T00:30:34;99751.78;;;13.13;64.66
63694;BME280;49839;51.798;10.954;2022-07-10T00:33:02;99756.31;;;13.11;64.41
63694;BME280;49839;51.798;10.954;2022-07-10T00:35:30;99757.34;;;13.08;64.90
63694;BME280;49839;51.798;10.954;2022-07-10T00:37:57;99760.75;;;13.10;65.04
63694;BME280;49839;51.798;10.954;2022-07-10T00:40:25;99758.94;;;13.11;64.90
63694;BME280;49839;51.798;10.954;2022-07-10T00:42:53;99763.28;;;13.12;64.68
63694;BME280;49839;51.798;10.954;2022-07-10T00:45:22;99758.69;;;13.15;64.79
63694;BME280;49839;51.798;10.954;2022-07-10T00:47:49;99757.06;;;13.13;65.32
63694;BME280;49839;51.798;10.954;2022-07-10T00:50:17;99750.75;;;13.15;64.82
63694;BME280;49839;51.798;10.954;2022-07-10T00:52:45;99746.31;;;13.16;64.37
63694;BME280;49839;51.798;10.954;2022-07-10T00:55:13;99744.69;;;13.13;64.81
63694;BME280;49839;51.798;10.954;2022-07-10T00:57:41;99742.03;;;13.13;64.56
63694;BME280;49839;51.798;10.954;2022-07-10T01:00:09;99737.03;;;13.09;64.66
63694;BME280;49839;51.798;10.954;2022-07-10T01:02:41;99737.97;;;13.08;64.54
63694;BME280;49839;51.798;10.954;2022-07-10T01:05:09;99732.72;;;13.06;64.79
63694;BME280;49839;51.798;10.954;2022-07-10T01:07:37;99725.75;;;13.05;64.81
63694;BME280;49839;51.798;10.954;2022-07-10T01:10:05;99740.59;;;13.08;63.82
63694;BME280;49839;51.798;10.954;2022-07-10T01:12:33;99730.59;;;13.13;64.17
63694;BME280;49839;51.798;10.954;2022-07-10T01:15:01;99722.66;;;13.13;64.23
63694;BME280;49839;51.798;10.954;2022-07-10T01:17:29;99727.91;;;13.14;63.85
63694;BME280;49839;51.798;10.954;2022-07-10T01:20:04;99718.91;;;13.17;63.94
63694;BME280;49839;51.798;10.954;2022-07-10T01:22:33;99703.78;;;13.19;63.94
63694;BME280;49839;51.798;10.954;2022-07-10T01:25:01;99715.41;;;13.16;64.05
63694;BME280;49839;51.798;10.954;2022-07-10T01:27:29;99718.16;;;13.15;64.15
63694;BME280;49839;51.798;10.954;2022-07-10T01:29:57;99719.00;;;13.15;64.08
63694;BME280;49839;51.798;10.954;2022-07-10T01:32:25;99719.09;;;13.14;64.07
63694;BME280;49839;51.798;10.954;2022-07-10T01:34:53;99719.16;;;13.12;64.05
63694;BME280;49839;51.798;10.954;2022-07-10T01:37:21;99713.81;;;13.14;63.96
63694;BME280;49839;51.798;10.954;2022-07-10T01:39:50;99720.88;;;13.13;64.78
63694;BME280;49839;51.798;10.954;2022-07-10T01:42:18;99723.78;;;13.09;64.73
63694;BME280;49839;51.798;10.954;2022-07-10T01:44:45;99715.91;;;13.07;64.87
63694;BME280;49839;51.798;10.954;2022-07-10T01:47:13;99708.84;;;13.08;65.03
63694;BME280;49839;51.798;10.954;2022-07-10T01:49:40;99705.50;;;13.04;65.11
63694;BME280;49839;51.798;10.954;2022-07-10T01:52:08;99706.59;;;13.00;65.05
63694;BME280;49839;51.798;10.954;2022-07-10T01:54:36;99702.25;;;12.99;65.29
63694;BME280;49839;51.798;10.954;2022-07-10T01:57:06;99702.25;;;12.99;65.18
63694;BME280;49839;51.798;10.954;2022-07-10T01:59:33;99713.69;;;12.99;64.88
63694;BME280;49839;51.798;10.954;2022-07-10T02:02:01;99707.03;;;12.92;65.49
63694;BME280;49839;51.798;10.954;2022-07-10T02:04:28;99705.34;;;12.91;65.44
63694;BME280;49839;51.798;10.954;2022-07-10T02:07:07;99704.63;;;12.88;65.81
63694;BME280;49839;51.798;10.954;2022-07-10T02:09:35;99694.94;;;12.88;65.95
63694;BME280;49839;51.798;10.954;2022-07-10T02:12:06;99694.34;;;12.83;66.02
63694;BME280;49839;51.798;10.954;2022-07-10T02:14:34;99704.22;;;12.80;65.94
63694;BME280;49839;51.798;10.954;2022-07-10T02:17:02;99712.31;;;12.77;66.22
63694;BME280;49839;51.798;10.954;2022-07-10T02:19:30;99695.75;;;12.73;65.74
63694;BME280;49839;51.798;10.954;2022-07-10T02:21:58;99705.56;;;12.71;66.46
63694;BME280;49839;51.798;10.954;2022-07-10T02:24:26;99704.63;;;12.72;66.58
63694;BME280;49839;51.798;10.954;2022-07-10T02:26:54;99710.88;;;12.71;67.15
63694;BME280;49839;51.798;10.954;2022-07-10T02:29:24;99698.31;;;12.74;66.83
63694;BME280;49839;51.798;10.954;2022-07-10T02:31:52;99705.41;;;12.74;67.06
63694;BME280;49839;51.798;10.954;2022-07-10T02:34:19;99701.06;;;12.73;67.38
63694;BME280;49839;51.798;10.954;2022-07-10T02:36:47;99703.53;;;12.76;67.06
63694;BME280;49839;51.798;10.954;2022-07-10T02:39:14;99694.25;;;12.69;67.58
63694;BME280;49839;51.798;10.954;2022-07-10T02:41:42;99693.97;;;12.73;67.33
63694;BME280;49839;51.798;10.954;2022-07-10T02:44:09;99699.25;;;12.73;67.59
63694;BME280;49839;51.798;10.954;2022-07-10T02:46:39;99689.53;;;12.74;67.51
63694;BME280;49839;51.798;10.954;2022-07-10T02:49:07;99691.22;;;12.75;67.56
63694;BME280;49839;51.798;10.954;2022-07-10T02:51:34;99680.84;;;12.72;67.48
63694;BME280;49839;51.798;10.954;2022-07-10T02:54:02;99675.63;;;12.70;66.83
63694;BME280;49839;51.798;10.954;2022-07-10T02:56:29;99682.78;;;12.68;67.28
63694;BME280;49839;51.798;10.954;2022-07-10T02:58:57;99677.59;;;12.67;66.87
63694;BME280;49839;51.798;10.954;2022-07-10T03:01:25;99677.84;;;12.62;67.29
63694;BME280;49839;51.798;10.954;2022-07-10T03:03:54;99671.69;;;12.62;67.14
63694;BME280;49839;51.798;10.954;2022-07-10T03:06:22;99676.06;;;12.63;66.67
63694;BME280;49839;51.798;10.954;2022-07-10T03:08:49;99667.44;;;12.59;66.97
63694;BME280;49839;51.798;10.954;2022-07-10T03:11:17;99674.50;;;12.59;67.20
63694;BME280;49839;51.798;10.954;2022-07-10T03:13:44;99667.44;;;12.59;67.14
63694;BME280;49839;51.798;10.954;2022-07-10T03:16:12;99684.06;;;12.61;66.93
63694;BME280;49839;51.798;10.954;2022-07-10T03:18:40;99676.97;;;12.62;67.31
63694;BME280;49839;51.798;10.954;2022-07-10T03:21:10;99660.44;;;12.58;67.12
63694;BME280;49839;51.798;10.954;2022-07-10T03:23:37;99672.81;;;12.58;67.14
63694;BME280;49839;51.798;10.954;2022-07-10T03:26:06;99681.59;;;12.58;67.66
63694;BME280;49839;51.798;10.954;2022-07-10T03:28:34;99677.91;;;12.61;67.68
63694;BME280;49839;51.798;10.954;2022-07-10T03:31:02;99676.72;;;12.66;67.53
63694;BME280;49839;51.798;10.954;2022-07-10T03:33:32;99672.63;;;12.61;67.69
63694;BME280;49839;51.798;10.954;2022-07-10T03:36:00;99678.53;;;12.66;67.56
63694;BME280;49839;51.798;10.954;2022-07-10T03:38:29;99679.88;;;12.57;67.84
63694;BME280;49839;51.798;10.954;2022-07-10T03:40:56;99678.94;;;12.58;68.16
63694;BME280;49839;51.798;10.954;2022-07-10T03:43:24;99671.69;;;12.62;68.40
63694;BME280;49839;51.798;10.954;2022-07-10T03:45:51;99675.03;;;12.65;68.50
63694;BME280;49839;51.798;10.954;2022-07-10T03:48:19;99670.59;;;12.66;68.11
63694;BME280;49839;51.798;10.954;2022-07-10T03:50:49;99679.13;;;12.71;68.11
63694;BME280;49839;51.798;10.954;2022-07-10T03:53:17;99674.00;;;12.68;67.93
63694;BME280;49839;51.798;10.954;2022-07-10T03:55:46;99675.72;;;12.69;68.24
63694;BME280;49839;51.798;10.954;2022-07-10T03:58:13;99678.09;;;12.73;67.76
63694;BME280;49839;51.798;10.954;2022-07-10T04:00:40;99679.41;;;12.82;67.44
63694;BME280;49839;51.798;10.954;2022-07-10T04:03:08;99680.25;;;12.83;67.22
63694;BME280;49839;51.798;10.954;2022-07-10T04:05:36;99682.81;;;12.84;66.94
63694;BME280;49839;51.798;10.954;2022-07-10T04:08:04;99677.44;;;12.86;67.49
63694;BME280;49839;51.798;10.954;2022-07-10T04:10:32;99674.34;;;12.93;67.42
63694;BME280;49839;51.798;10.954;2022-07-10T04:13:01;99670.38;;;13.02;67.02
63694;BME280;49839;51.798;10.954;2022-07-10T04:15:29;99671.22;;;13.02;67.03
63694;BME280;49839;51.798;10.954;2022-07-10T04:17:56;99671.03;;;13.06;67.26
63694;BME280;49839;51.798;10.954;2022-07-10T04:20:24;99679.25;;;13.01;67.12
63694;BME280;49839;51.798;10.954;2022-07-10T04:22:52;99678.22;;;13.04;67.29
63694;BME280;49839;51.798;10.954;2022-07-10T04:25:19;99669.59;;;13.16;66.75
63694;BME280;49839;51.798;10.954;2022-07-10T04:27:47;99679.66;;;13.09;66.50
63694;BME280;49839;51.798;10.954;2022-07-10T04:30:16;99674.09;;;12.98;67.63
63694;BME280;49839;51.798;10.954;2022-07-10T04:32:44;99681.78;;;12.87;71.61
63694;BME280;49839;51.798;10.954;2022-07-10T04:35:11;99683.09;;;12.95;71.60
63694;BME280;49839;51.798;10.954;2022-07-10T04:37:39;99678.19;;;12.88;71.08
63694;BME280;49839;51.798;10.954;2022-07-10T04:40:08;99691.94;;;12.79;71.47
63694;BME280;49839;51.798;10.954;2022-07-10T04:42:35;99677.69;;;12.81;71.50
63694;BME280;49839;51.798;10.954;2022-07-10T04:45:04;99683.91;;;12.64;71.56
63694;BME280;49839;51.798;10.954;2022-07-10T04:47:33;99689.28;;;12.63;71.86
63694;BME280;49839;51.798;10.954;2022-07-10T04:50:00;99685.28;;;12.71;71.41
63694;BME280;49839;51.798;10.954;2022-07-10T04:52:28;99690.91;;;12.81;71.49
63694;BME280;49839;51.798;10.954;2022-07-10T04:54:55;99686.13;;;12.88;70.84
63694;BME280;49839;51.798;10.954;2022-07-10T04:57:23;99694.00;;;12.89;70.85
63694;BME280;49839;51.798;10.954;2022-07-10T04:59:50;99690.91;;;12.81;71.79
63694;BME280;49839;51.798;10.954;2022-07-10T05:02:18;99701.13;;;12.71;74.00
63694;BME280;49839;51.798;10.954;2022-07-10T05:04:47;99708.38;;;12.68;73.82
63694;BME280;49839;51.798;10.954;2022-07-10T05:07:15;99709.19;;;12.53;77.08
63694;BME280;49839;51.798;10.954;2022-07-10T05:09:42;99719.25;;;12.46;80.43
63694;BME280;49839;51.798;10.954;2022-07-10T05:12:10;99719.44;;;12.26;82.83
63694;BME280;49839;51.798;10.954;2022-07-10T05:14:37;99725.13;;;12.18;84.45
63694;BME280;49839;51.798;10.954;2022-07-10T05:17:05;99727.16;;;12.13;86.12
63694;BME280;49839;51.798;10.954;2022-07-10T05:19:32;99731.81;;;12.08;86.22
63694;BME280;49839;51.798;10.954;2022-07-10T05:22:01;99729.94;;;12.10;87.04
63694;BME280;49839;51.798;10.954;2022-07-10T05:24:29;99728.47;;;12.04;86.90
63694;BME280;49839;51.798;10.954;2022-07-10T05:26:56;99719.41;;;11.92;87.22
63694;BME280;49839;51.798;10.954;2022-07-10T05:29:24;99717.13;;;11.85;88.11
63694;BME280;49839;51.798;10.954;2022-07-10T05:31:51;99711.63;;;11.89;87.02
63694;BME280;49839;51.798;10.954;2022-07-10T05:34:19;99717.75;;;11.90;86.80
63694;BME280;49839;51.798;10.954;2022-07-10T05:36:47;99715.44;;;12.01;87.32
63694;BME280;49839;51.798;10.954;2022-07-10T05:39:16;99711.22;;;12.14;85.79
63694;BME280;49839;51.798;10.954;2022-07-10T05:41:43;99711.97;;;12.34;85.52
63694;BME280;49839;51.798;10.954;2022-07-10T05:44:11;99699.78;;;12.31;84.18
63694;BME280;49839;51.798;10.954;2022-07-10T05:46:39;99714.47;;;12.37;83.38
63694;BME280;49839;51.798;10.954;2022-07-10T05:49:06;99703.81;;;12.38;81.98
63694;BME280;49839;51.798;10.954;2022-07-10T05:51:34;99702.75;;;12.58;83.17
63694;BME280;49839;51.798;10.954;2022-07-10T05:54:10;99708.31;;;12.85;80.86
63694;BME280;49839;51.798;10.954;2022-07-10T05:56:39;99700.91;;;13.08;79.45
63694;BME280;49839;51.798;10.954;2022-07-10T05:59:07;99700.09;;;13.23;77.82
63694;BME280;49839;51.798;10.954;2022-07-10T06:01:34;99699.69;;;13.45;76.18
63694;BME280;49839;51.798;10.954;2022-07-10T06:04:02;99711.28;;;13.74;76.02
63694;BME280;49839;51.798;10.954;2022-07-10T06:06:30;99703.09;;;13.93;73.98
63694;BME280;49839;51.798;10.954;2022-07-10T06:08:57;99709.38;;;14.06;74.82
63694;BME280;49839;51.798;10.954;2022-07-10T06:11:26;99710.72;;;14.13;73.56
63694;BME280;49839;51.798;10.954;2022-07-10T06:13:55;99706.56;;;14.23;73.91
63694;BME280;49839;51.798;10.954;2022-07-10T06:16:23;99701.06;;;14.26;73.21
63694;BME280;49839;51.798;10.954;2022-07-10T06:18:51;99712.16;;;14.19;73.77
63694;BME280;49839;51.798;10.954;2022-07-10T06:21:18;99710.88;;;14.10;74.69
63694;BME280;49839;51.798;10.954;2022-07-10T06:23:48;99706.72;;;14.06;74.01
63694;BME280;49839;51.798;10.954;2022-07-10T06:26:15;99707.25;;;13.97;73.66
63694;BME280;49839;51.798;10.954;2022-07-10T06:28:43;99710.31;;;14.05;73.79
63694;BME280;49839;51.798;10.954;2022-07-10T06:31:12;99722.63;;;14.06;74.39
63694;BME280;49839;51.798;10.954;2022-07-10T06:33:40;99716.66;;;14.17;72.96
63694;BME280;49839;51.798;10.954;2022-07-10T06:36:07;99710.44;;;14.18;73.06
63694;BME280;49839;51.798;10.954;2022-07-10T06:38:35;99710.50;;;14.16;73.06
63694;BME280;49839;51.798;10.954;2022-07-10T06:41:03;99713.53;;;14.10;73.06
63694;BME280;49839;51.798;10.954;2022-07-10T06:43:31;99713.94;;;14.18;73.21
63694;BME280;49839;51.798;10.954;2022-07-10T06:45:58;99714.19;;;13.99;71.86
63694;BME280;49839;51.798;10.954;2022-07-10T06:48:28;99720.94;;;14.05;72.62
63694;BME280;49839;51.798;10.954;2022-07-10T06:50:58;99712.41;;;14.14;72.54
63694;BME280;49839;51.798;10.954;2022-07-10T06:53:27;99709.22;;;14.23;73.61
63694;BME280;49839;51.798;10.954;2022-07-10T06:55:54;99706.00;;;14.32;71.69
63694;BME280;49839;51.798;10.954;2022-07-10T06:58:22;99720.72;;;14.52;71.23
63694;BME280;49839;51.798;10.954;2022-07-10T07:00:49;99709.25;;;14.66;71.28
63694;BME280;49839;51.798;10.954;2022-07-10T07:03:17;99711.28;;;14.62;71.01
63694;BME280;49839;51.798;10.954;2022-07-10T07:05:46;99710.31;;;14.63;70.25
63694;BME280;49839;51.798;10.954;2022-07-10T07:08:13;99701.78;;;14.58;70.28
63694;BME280;49839;51.798;10.954;2022-07-10T07:10:42;99703.78;;;14.69;69.80
63694;BME280;49839;51.798;10.954;2022-07-10T07:13:10;99709.00;;;14.71;69.69
63694;BME280;49839;51.798;10.954;2022-07-10T07:15:38;99711.81;;;14.53;68.82
63694;BME280;49839;51.798;10.954;2022-07-10T07:18:08;99715.44;;;14.52;68.90
63694;BME280;49839;51.798;10.954;2022-07-10T07:20:39;99714.28;;;14.71;69.31
63694;BME280;49839;51.798;10.954;2022-07-10T07:23:25;99708.16;;;15.53;66.73
63694;BME280;49839;51.798;10.954;2022-07-10T07:25:53;99708.59;;;15.86;65.04
63694;BME280;49839;51.798;10.954;2022-07-10T07:28:22;99717.59;;;15.84;65.23
63694;BME280;49839;51.798;10.954;2022-07-10T07:30:49;99719.13;;;16.01;64.59
63694;BME280;49839;51.798;10.954;2022-07-10T07:33:17;99718.00;;;16.05;61.81
63694;BME280;49839;51.798;10.954;2022-07-10T07:35:45;99719.03;;;16.02;62.35
63694;BME280;49839;51.798;10.954;2022-07-10T07:38:12;99719.72;;;16.31;61.59
63694;BME280;49839;51.798;10.954;2022-07-10T07:40:41;99724.06;;;16.45;60.08
63694;BME280;49839;51.798;10.954;2022-07-10T07:43:09;99712.47;;;16.33;59.92
63694;BME280;49839;51.798;10.954;2022-07-10T07:45:36;99714.50;;;16.55;60.15
63694;BME280;49839;51.798;10.954;2022-07-10T07:48:04;99711.28;;;17.25;58.69
63694;BME280;49839;51.798;10.954;2022-07-10T07:50:35;99711.56;;;17.46;55.96
63694;BME280;49839;51.798;10.954;2022-07-10T07:53:04;99697.38;;;17.45;56.29
63694;BME280;49839;51.798;10.954;2022-07-10T07:55:33;99694.66;;;17.82;56.95
63694;BME280;49839;51.798;10.954;2022-07-10T07:58:03;99694.03;;;18.25;53.76
63694;BME280;49839;51.798;10.954;2022-07-10T08:00:31;99694.47;;;18.07;53.76
63694;BME280;49839;51.798;10.954;2022-07-10T08:02:59;99692.56;;;17.74;53.42
63694;BME280;49839;51.798;10.954;2022-07-10T08:05:28;99693.59;;;17.96;52.83
63694;BME280;49839;51.798;10.954;2022-07-10T08:07:57;99693.28;;;18.11;52.51
63694;BME280;49839;51.798;10.954;2022-07-10T08:10:26;99693.72;;;17.94;52.71
63694;BME280;49839;51.798;10.954;2022-07-10T08:12:54;99694.75;;;17.56;54.01
63694;BME280;49839;51.798;10.954;2022-07-10T08:15:23;99697.66;;;17.29;54.82
63694;BME280;49839;51.798;10.954;2022-07-10T08:17:51;99690.00;;;17.49;54.29
63694;BME280;49839;51.798;10.954;2022-07-10T08:20:19;99698.16;;;17.82;54.26
63694;BME280;49839;51.798;10.954;2022-07-10T08:22:48;99686.28;;;17.75;53.21
63694;BME280;49839;51.798;10.954;2022-07-10T08:25:24;99698.28;;;18.27;51.90
63694;BME280;49839;51.798;10.954;2022-07-10T08:27:52;99689.50;;;18.94;50.76
63694;BME280;49839;51.798;10.954;2022-07-10T08:30:19;99680.50;;;18.84;50.51
63694;BME280;49839;51.798;10.954;2022-07-10T08:32:48;99688.97;;;18.44;51.67
63694;BME280;49839;51.798;10.954;2022-07-10T08:35:16;99679.28;;;17.62;52.84
63694;BME280;49839;51.798;10.954;2022-07-10T08:37:44;99680.88;;;17.40;53.85
63694;BME280;49839;51.798;10.954;2022-07-10T08:40:13;99683.47;;;17.77;53.72
63694;BME280;49839;51.798;10.954;2022-07-10T08:42:42;99675.91;;;17.71;52.02
63694;BME280;49839;51.798;10.954;2022-07-10T08:45:12;99673.59;;;17.90;51.46
63694;BME280;49839;51.798;10.954;2022-07-10T08:47:40;99685.19;;;17.78;51.66
63694;BME280;49839;51.798;10.954;2022-07-10T08:50:17;99672.91;;;17.51;51.64
63694;BME280;49839;51.798;10.954;2022-07-10T08:52:52;99669.84;;;17.93;51.91
63694;BME280;49839;51.798;10.954;2022-07-10T08:55:24;99670.31;;;18.55;51.35
63694;BME280;49839;51.798;10.954;2022-07-10T08:57:53;99666.09;;;19.30;49.25
63694;BME280;49839;51.798;10.954;2022-07-10T09:00:22;99658.69;;;19.33;47.88
63694;BME280;49839;51.798;10.954;2022-07-10T09:02:49;99660.44;;;19.44;47.09
63694;BME280;49839;51.798;10.954;2022-07-10T09:05:18;99643.56;;;19.11;46.82
63694;BME280;49839;51.798;10.954;2022-07-10T09:07:46;99664.50;;;18.73;47.57
63694;BME280;49839;51.798;10.954;2022-07-10T09:10:14;99667.25;;;18.60;48.10
63694;BME280;49839;51.798;10.954;2022-07-10T09:12:53;99665.81;;;18.89;47.65
63694;BME280;49839;51.798;10.954;2022-07-10T09:15:21;99670.31;;;19.75;45.98
63694;BME280;49839;51.798;10.954;2022-07-10T09:17:53;99657.81;;;20.18;45.06
63694;BME280;49839;51.798;10.954;2022-07-10T09:20:31;99667.75;;;19.85;43.33
63694;BME280;49839;51.798;10.954;2022-07-10T09:23:00;99660.75;;;19.30;44.64
63694;BME280;49839;51.798;10.954;2022-07-10T09:25:36;99661.63;;;19.19;46.30
63694;BME280;49839;51.798;10.954;2022-07-10T09:28:03;99674.75;;;19.11;44.73
63694;BME280;49839;51.798;10.954;2022-07-10T09:30:36;99657.25;;;19.29;45.48
63694;BME280;49839;51.798;10.954;2022-07-10T09:33:18;99673.19;;;19.19;44.81
63694;BME280;49839;51.798;10.954;2022-07-10T09:36:02;99674.28;;;19.49;44.01
63694;BME280;49839;51.798;10.954;2022-07-10T09:38:49;99666.03;;;19.52;44.01
63694;BME280;49839;51.798;10.954;2022-07-10T09:41:18;99663.94;;;20.09;42.90
63694;BME280;49839;51.798;10.954;2022-07-10T09:43:47;99659.22;;;19.59;43.07
63694;BME280;49839;51.798;10.954;2022-07-10T09:46:15;99658.25;;;19.60;42.61
63694;BME280;49839;51.798;10.954;2022-07-10T09:48:43;99663.03;;;19.98;42.94
63694;BME280;49839;51.798;10.954;2022-07-10T09:51:13;99664.63;;;19.69;43.17
63694;BME280;49839;51.798;10.954;2022-07-10T09:53:42;99666.53;;;19.46;42.22
63694;BME280;49839;51.798;10.954;2022-07-10T09:56:11;99649.31;;;18.96;43.64
63694;BME280;49839;51.798;10.954;2022-07-10T09:58:39;99667.88;;;18.52;45.37
63694;BME280;49839;51.798;10.954;2022-07-10T10:01:08;99670.03;;;18.25;45.58
63694;BME280;49839;51.798;10.954;2022-07-10T10:03:38;99662.81;;;18.03;45.10
63694;BME280;49839;51.798;10.954;2022-07-10T10:06:10;99666.19;;;18.62;45.52
63694;BME280;49839;51.798;10.954;2022-07-10T10:08:48;99641.69;;;19.66;42.48
63694;BME280;49839;51.798;10.954;2022-07-10T10:11:20;99644.16;;;20.42;41.88
63694;BME280;49839;51.798;10.954;2022-07-10T10:13:49;99635.06;;;21.04;39.16
63694;BME280;49839;51.798;10.954;2022-07-10T10:16:19;99629.91;;;20.72;39.73
63694;BME280;49839;51.798;10.954;2022-07-10T10:18:50;99651.03;;;20.14;40.81
63694;BME280;49839;51.798;10.954;2022-07-10T10:21:38;99650.41;;;19.36;41.87
63694;BME280;49839;51.798;10.954;2022-07-10T10:24:07;99638.97;;;19.02;42.52
63694;BME280;49839;51.798;10.954;2022-07-10T10:26:35;99646.75;;;19.37;42.80
63694;BME280;49839;51.798;10.954;2022-07-10T10:29:04;99645.22;;;19.24;43.08
63694;BME280;49839;51.798;10.954;2022-07-10T10:31:33;99653.41;;;19.00;43.17
63694;BME280;49839;51.798;10.954;2022-07-10T10:34:01;99649.94;;;18.88;43.64
63694;BME280;49839;51.798;10.954;2022-07-10T10:36:46;99651.78;;;19.63;42.39
63694;BME280;49839;51.798;10.954;2022-07-10T10:39:16;99648.28;;;20.25;40.73
63694;BME280;49839;51.798;10.954;2022-07-10T10:41:48;99639.38;;;20.86;39.58
63694;BME280;49839;51.798;10.954;2022-07-10T10:44:23;99637.66;;;21.44;38.49
63694;BME280;49839;51.798;10.954;2022-07-10T10:46:59;99625.53;;;21.79;38.42
63694;BME280;49839;51.798;10.954;2022-07-10T10:49:52;99636.88;;;22.66;36.64
63694;BME280;49839;51.798;10.954;2022-07-10T10:52:20;99625.50;;;22.82;36.62
63694;BME280;49839;51.798;10.954;2022-07-10T10:55:05;99635.13;;;21.91;36.57
63694;BME280;49839;51.798;10.954;2022-07-10T10:57:39;99635.81;;;21.25;37.57
63694;BME280;49839;51.798;10.954;2022-07-10T11:00:12;99638.91;;;20.61;37.31
63694;BME280;49839;51.798;10.954;2022-07-10T11:02:42;99635.13;;;20.43;38.15
63694;BME280;49839;51.798;10.954;2022-07-10T11:05:41;99633.44;;;20.72;38.64
63694;BME280;49839;51.798;10.954;2022-07-10T11:08:10;99616.50;;;20.72;38.68
63694;BME280;49839;51.798;10.954;2022-07-10T11:10:41;99619.69;;;20.96;37.96
63694;BME280;49839;51.798;10.954;2022-07-10T11:13:16;99622.41;;;21.25;38.17
63694;BME280;49839;51.798;10.954;2022-07-10T11:15:44;99618.13;;;21.03;37.55
63694;BME280;49839;51.798;10.954;2022-07-10T11:18:13;99624.22;;;21.15;37.60
63694;BME280;49839;51.798;10.954;2022-07-10T11:20:43;99625.34;;;21.03;38.08
63694;BME280;49839;51.798;10.954;2022-07-10T11:23:21;99608.88;;;20.67;38.72
63694;BME280;49839;51.798;10.954;2022-07-10T11:26:04;99628.44;;;20.48;38.41
63694;BME280;49839;51.798;10.954;2022-07-10T11:28:41;99615.88;;;20.89;38.11
63694;BME280;49839;51.798;10.954;2022-07-10T11:31:14;99624.22;;;21.15;37.46
63694;BME280;49839;51.798;10.954;2022-07-10T11:33:43;99615.81;;;21.39;37.51
63694;BME280;49839;51.798;10.954;2022-07-10T11:36:14;99605.69;;;20.83;38.05
63694;BME280;49839;51.798;10.954;2022-07-10T11:38:43;99626.66;;;20.68;38.82
63694;BME280;49839;51.798;10.954;2022-07-10T11:41:17;99624.16;;;20.76;38.43
63694;BME280;49839;51.798;10.954;2022-07-10T11:43:49;99616.41;;;20.93;37.57
63694;BME280;49839;51.798;10.954;2022-07-10T11:46:17;99618.41;;;20.91;38.26
63694;BME280;49839;51.798;10.954;2022-07-10T11:48:45;99613.22;;;20.49;38.71
63694;BME280;49839;51.798;10.954;2022-07-10T11:51:17;99615.88;;;20.28;38.97
63694;BME280;49839;51.798;10.954;2022-07-10T11:54:00;99606.47;;;20.54;38.40
63694;BME280;49839;51.798;10.954;2022-07-10T11:56:30;99611.31;;;20.70;38.31
63694;BME280;49839;51.798;10.954;2022-07-10T11:59:00;99601.41;;;20.61;39.14
63694;BME280;49839;51.798;10.954;2022-07-10T12:01:29;99606.19;;;20.67;39.20
63694;BME280;49839;51.798;10.954;2022-07-10T12:03:59;99609.69;;;21.08;37.72
63694;BME280;49839;51.798;10.954;2022-07-10T12:06:28;99600.75;;;20.78;38.80
63694;BME280;49839;51.798;10.954;2022-07-10T12:09:01;99608.38;;;20.43;39.21
63694;BME280;49839;51.798;10.954;2022-07-10T12:11:31;99612.03;;;20.42;39.83
63694;BME280;49839;51.798;10.954;2022-07-10T12:14:08;99608.28;;;20.23;39.13
63694;BME280;49839;51.798;10.954;2022-07-10T12:16:37;99617.19;;;20.03;40.03
63694;BME280;49839;51.798;10.954;2022-07-10T12:19:06;99606.63;;;20.63;39.58
63694;BME280;49839;51.798;10.954;2022-07-10T12:21:34;99585.38;;;20.40;39.76
63694;BME280;49839;51.798;10.954;2022-07-10T12:24:03;99617.88;;;20.05;40.38
63694;BME280;49839;51.798;10.954;2022-07-10T12:26:33;99615.31;;;20.24;40.84
63694;BME280;49839;51.798;10.954;2022-07-10T12:29:02;99608.75;;;20.38;39.25
63694;BME280;49839;51.798;10.954;2022-07-10T12:31:31;99601.97;;;20.65;39.47
63694;BME280;49839;51.798;10.954;2022-07-10T12:34:01;99608.03;;;20.67;37.70
63694;BME280;49839;51.798;10.954;2022-07-10T12:36:46;99619.19;;;20.72;37.23
63694;BME280;49839;51.798;10.954;2022-07-10T12:39:16;99599.13;;;20.57;36.51
63694;BME280;49839;51.798;10.954;2022-07-10T12:41:59;99596.44;;;20.26;37.98
63694;BME280;49839;51.798;10.954;2022-07-10T12:44:35;99616.63;;;20.09;38.95
63694;BME280;49839;51.798;10.954;2022-07-10T12:47:05;99610.00;;;20.34;39.68
63694;BME280;49839;51.798;10.954;2022-07-10T12:49:49;99607.19;;;20.66;39.78
63694;BME280;49839;51.798;10.954;2022-07-10T12:52:21;99610.09;;;20.94;39.53
63694;BME280;49839;51.798;10.954;2022-07-10T12:55:09;99618.69;;;20.88;39.72
63694;BME280;49839;51.798;10.954;2022-07-10T12:57:52;99613.06;;;21.00;40.35
63694;BME280;49839;51.798;10.954;2022-07-10T13:00:22;99610.25;;;21.02;39.03
63694;BME280;49839;51.798;10.954;2022-07-10T13:02:57;99616.13;;;20.86;39.46